Orto / Ocaso: 06:34 / 17:26 UTC (Datos para LEAX 25-10-2020)

[fuente: ADDS]

METAR:


LEMG 252130Z 19005KT 9999 FEW030 17/12 Q1018 NOSIG =
TAF LEMG 251700Z 2518/2618 31004KT CAVOK TX21/2613Z TN14/2606Z PROB30 TEMPO 2523/2604 4000 RA BKN010 BECMG 2602/2604 29016KT TEMPO 2607/2618 29020G33KT LEGR 252130Z 18003KT 150V210 9999 BKN030 15/09 Q1019 =
TAF LEGR 252000Z 2521/2621 VRB02KT 9999 SCT040 TX16/2614Z TN04/2606Z PROB40 TEMPO 2522/2606 28015G25KT 4000 RA BR BKN012 BECMG 2610/2612 32010KT BECMG 2617/2619 VRB02KT LEZL 252130Z 25014KT 9999 -DZ FEW005 BKN012 17/16 Q1018 RERA NOSIG =
TAF LEZL 252000Z 2521/2621 25009KT 9999 FEW020 SCT040 TX20/2614Z TN11/2606Z PROB40 TEMPO 2521/2602 4000 RA BR BKN012 LEAM 252130Z 30006KT 270V360 CAVOK 18/13 Q1015 =
TAF LEAM 252000Z 2521/2621 23016KT CAVOK TX22/2614Z TN12/2606Z TEMPO 2521/2524 VRB02KT BECMG 2605/2608 33014KT PROB40 TEMPO 2607/2611 32018G30KT BECMG 2610/2612 19010KT BECMG 2614/2616 35008KT LEBA 252130Z AUTO 22016KT 190V260 9999 -RA SCT022 SCT031 BKN038 16/15 Q1016 =
TAF LEBA 251400Z 2515/2615 25009KT 9999 SCT040 TX20/2515Z TN09/2606Z TEMPO 2515/2522 26015G25KT PROB40 TEMPO 2518/2602 4000 RA BKN012 LEJR 252130Z 22014KT 9000 FEW015 BKN025 BKN040 19/17 Q1019 =
TAF LEJR 251700Z 2518/2618 23012KT 9999 FEW020 SCT040 TX20/2614Z TN09/2606Z BECMG 2521/2523 32006KT PROB40 TEMPO 2519/2603 4000 RA BKN012 PROB30 TEMPO 2603/2609 4000 BR GEML 252130Z 24006KT 200V280 CAVOK 19/14 Q1020 =
TAF GEML 252000Z 2521/2621 29012KT 9999 FEW020 TX21/2614Z TN16/2606Z TEMPO 2606/2618 28018G30KT PROB40 TEMPO 2605/2610 4000 RA BR BKN010 LXGB 252050Z AUTO 22013KT 9999 // BKN047/// 20/14 Q1020 =
TAF LXGB 251640Z 2518/2523 27012KT 9999 SCT040 PROB30 TEMPO 2521/2523 25015G25KT 7000 -SHRA SCT024

TAFOR:


TAF LEMG 251700Z 2518/2618 31004KT CAVOK TX21/2613Z TN14/2606Z PROB30 TEMPO 2523/2604 4000 RA BKN010 BECMG 2602/2604 29016KT TEMPO 2607/2618 29020G33KT =
TAF LEGR 252000Z 2521/2621 VRB02KT 9999 SCT040 TX16/2614Z TN04/2606Z PROB40 TEMPO 2522/2606 28015G25KT 4000 RA BR BKN012 BECMG 2610/2612 32010KT BECMG 2617/2619 VRB02KT =
TAF LEZL 252000Z 2521/2621 25009KT 9999 FEW020 SCT040 TX20/2614Z TN11/2606Z PROB40 TEMPO 2521/2602 4000 RA BR BKN012 =
TAF LEAM 252000Z 2521/2621 23016KT CAVOK TX22/2614Z TN12/2606Z TEMPO 2521/2524 VRB02KT BECMG 2605/2608 33014KT PROB40 TEMPO 2607/2611 32018G30KT BECMG 2610/2612 19010KT BECMG 2614/2616 35008KT =
TAF LEBA 251400Z 2515/2615 25009KT 9999 SCT040 TX20/2515Z TN09/2606Z TEMPO 2515/2522 26015G25KT PROB40 TEMPO 2518/2602 4000 RA BKN012 =
TAF LEJR 251700Z 2518/2618 23012KT 9999 FEW020 SCT040 TX20/2614Z TN09/2606Z BECMG 2521/2523 32006KT PROB40 TEMPO 2519/2603 4000 RA BKN012 PROB30 TEMPO 2603/2609 4000 BR =
TAF GEML 252000Z 2521/2621 29012KT 9999 FEW020 TX21/2614Z TN16/2606Z TEMPO 2606/2618 28018G30KT PROB40 TEMPO 2605/2610 4000 RA BR BKN010 =
TAF LXGB 251640Z 2518/2523 27012KT 9999 SCT040 PROB30 TEMPO 2521/2523 25015G25KT 7000 -SHRA SCT024 =

Recuerde que, aunque regularmente actualizada, la información meteorológica aquí presentada no debe ser utilizada para la planificación de vuelos. Si lo desea, puede consultar la información meteorológica adecuada, tanto de aeródromos como en ruta, por las vías oficialmente establecidas en la legislación -> AQUí

Utilizamos "cookies" propias y de terceros para analizar nuestros servicios, medir las audiencias, personalizar el contenido que ofrecemos y mostrar información adaptada a sus intereses mediante la obtención de los datos necesarios para perfilar sus hábitos de navegación e inferir grupos de interés, siempre de modo anónimo. Si continúa utilizando el sitio web AEROCLUBMALAGA.COM, significa que acepta sus términos y condiciones y el uso de "cookies" al utilizar el sitio web y nuestros servicios. Asimismo, podemos utilizar fuentes de datos externas para elaborar estos grupos de interés, así compartir los análisis de navegación y los grupos de interés inferidos con terceros con el objetivo de personalizar los contenidos. Para obtener más información sobre las cookies que utilizamos y cómo eliminarlas, consulte nuestra política de privacidad.

Acepto las cookies de esta página web.
EU Cookie Directive plugin by www.channeldigital.co.uk